sensor_id;sensor_type;location;lat;lon;timestamp;P1;durP1;ratioP1;P2;durP2;ratioP2
44434;SDS011;30138;20.964;105.830;2022-11-15T00:03:34;107.13;;;60.13;;
44434;SDS011;30138;20.964;105.830;2022-11-15T00:09:02;104.15;;;59.67;;
44434;SDS011;30138;20.964;105.830;2022-11-15T00:14:29;100.60;;;57.65;;
44434;SDS011;30138;20.964;105.830;2022-11-15T00:19:55;109.70;;;63.05;;
44434;SDS011;30138;20.964;105.830;2022-11-15T00:25:23;124.20;;;66.28;;
44434;SDS011;30138;20.964;105.830;2022-11-15T00:30:51;119.00;;;67.70;;
44434;SDS011;30138;20.964;105.830;2022-11-15T00:36:22;121.82;;;69.40;;
44434;SDS011;30138;20.964;105.830;2022-11-15T00:41:54;116.05;;;68.30;;
44434;SDS011;30138;20.964;105.830;2022-11-15T00:47:22;127.80;;;73.80;;
44434;SDS011;30138;20.964;105.830;2022-11-15T00:52:49;129.25;;;73.00;;
44434;SDS011;30138;20.964;105.830;2022-11-15T00:58:16;125.90;;;70.40;;
44434;SDS011;30138;20.964;105.830;2022-11-15T01:03:41;121.57;;;69.43;;
44434;SDS011;30138;20.964;105.830;2022-11-15T01:09:07;121.85;;;70.07;;
44434;SDS011;30138;20.964;105.830;2022-11-15T01:14:38;115.50;;;67.63;;
44434;SDS011;30138;20.964;105.830;2022-11-15T01:20:04;113.05;;;66.43;;
44434;SDS011;30138;20.964;105.830;2022-11-15T01:25:32;119.60;;;68.60;;
44434;SDS011;30138;20.964;105.830;2022-11-15T01:31:01;111.20;;;66.10;;
44434;SDS011;30138;20.964;105.830;2022-11-15T01:36:28;124.25;;;71.57;;
44434;SDS011;30138;20.964;105.830;2022-11-15T01:41:54;124.45;;;71.47;;
44434;SDS011;30138;20.964;105.830;2022-11-15T01:47:22;125.40;;;70.50;;
44434;SDS011;30138;20.964;105.830;2022-11-15T01:52:50;121.68;;;72.57;;
44434;SDS011;30138;20.964;105.830;2022-11-15T01:58:16;131.90;;;75.85;;
44434;SDS011;30138;20.964;105.830;2022-11-15T02:03:44;123.22;;;75.35;;
44434;SDS011;30138;20.964;105.830;2022-11-15T02:09:15;131.02;;;75.00;;
44434;SDS011;30138;20.964;105.830;2022-11-15T02:14:42;134.00;;;74.68;;
44434;SDS011;30138;20.964;105.830;2022-11-15T02:26:11;131.73;;;75.43;;
44434;SDS011;30138;20.964;105.830;2022-11-15T02:32:16;132.75;;;75.40;;
44434;SDS011;30138;20.964;105.830;2022-11-15T02:37:47;126.78;;;75.85;;
44434;SDS011;30138;20.964;105.830;2022-11-15T02:43:21;133.40;;;75.68;;
44434;SDS011;30138;20.964;105.830;2022-11-15T02:49:11;130.18;;;74.20;;
44434;SDS011;30138;20.964;105.830;2022-11-15T02:54:38;132.00;;;76.40;;
44434;SDS011;30138;20.964;105.830;2022-11-15T03:00:06;141.88;;;79.22;;
44434;SDS011;30138;20.964;105.830;2022-11-15T03:05:37;134.07;;;74.00;;
44434;SDS011;30138;20.964;105.830;2022-11-15T03:11:09;135.30;;;73.28;;
44434;SDS011;30138;20.964;105.830;2022-11-15T03:16:39;123.93;;;72.47;;
44434;SDS011;30138;20.964;105.830;2022-11-15T03:22:13;127.35;;;71.43;;
44434;SDS011;30138;20.964;105.830;2022-11-15T03:27:44;115.63;;;69.78;;
44434;SDS011;30138;20.964;105.830;2022-11-15T03:33:14;120.33;;;69.97;;
44434;SDS011;30138;20.964;105.830;2022-11-15T03:38:43;117.72;;;67.80;;
44434;SDS011;30138;20.964;105.830;2022-11-15T03:44:11;108.95;;;63.13;;
44434;SDS011;30138;20.964;105.830;2022-11-15T03:49:50;107.35;;;64.65;;
44434;SDS011;30138;20.964;105.830;2022-11-15T03:55:22;104.55;;;62.85;;
44434;SDS011;30138;20.964;105.830;2022-11-15T04:00:48;101.65;;;62.88;;
44434;SDS011;30138;20.964;105.830;2022-11-15T04:06:16;104.20;;;63.03;;
44434;SDS011;30138;20.964;105.830;2022-11-15T04:11:45;100.57;;;61.50;;
44434;SDS011;30138;20.964;105.830;2022-11-15T04:17:14;101.65;;;60.20;;
44434;SDS011;30138;20.964;105.830;2022-11-15T04:22:40;90.90;;;59.33;;
44434;SDS011;30138;20.964;105.830;2022-11-15T04:28:23;102.85;;;59.55;;
44434;SDS011;30138;20.964;105.830;2022-11-15T04:33:52;97.27;;;58.83;;
44434;SDS011;30138;20.964;105.830;2022-11-15T04:39:19;93.47;;;59.67;;
44434;SDS011;30138;20.964;105.830;2022-11-15T04:44:46;87.80;;;56.53;;
44434;SDS011;30138;20.964;105.830;2022-11-15T04:50:12;95.65;;;59.30;;
44434;SDS011;30138;20.964;105.830;2022-11-15T04:55:38;91.05;;;58.50;;
44434;SDS011;30138;20.964;105.830;2022-11-15T05:01:09;98.22;;;58.83;;
44434;SDS011;30138;20.964;105.830;2022-11-15T05:06:37;90.32;;;55.53;;
44434;SDS011;30138;20.964;105.830;2022-11-15T05:12:03;90.88;;;55.60;;
44434;SDS011;30138;20.964;105.830;2022-11-15T05:17:31;93.22;;;55.70;;
44434;SDS011;30138;20.964;105.830;2022-11-15T05:22:58;88.55;;;53.67;;
44434;SDS011;30138;20.964;105.830;2022-11-15T05:28:24;81.70;;;53.55;;
44434;SDS011;30138;20.964;105.830;2022-11-15T05:33:53;88.68;;;51.97;;
44434;SDS011;30138;20.964;105.830;2022-11-15T05:39:27;86.25;;;51.50;;
44434;SDS011;30138;20.964;105.830;2022-11-15T05:44:53;82.68;;;51.50;;
44434;SDS011;30138;20.964;105.830;2022-11-15T05:50:22;77.95;;;50.30;;
44434;SDS011;30138;20.964;105.830;2022-11-15T05:55:51;78.57;;;51.30;;
44434;SDS011;30138;20.964;105.830;2022-11-15T06:01:18;79.45;;;50.58;;
44434;SDS011;30138;20.964;105.830;2022-11-15T06:06:46;76.93;;;49.08;;
44434;SDS011;30138;20.964;105.830;2022-11-15T06:12:12;79.72;;;49.22;;
44434;SDS011;30138;20.964;105.830;2022-11-15T06:17:39;79.47;;;51.03;;
44434;SDS011;30138;20.964;105.830;2022-11-15T06:23:07;78.47;;;50.38;;
44434;SDS011;30138;20.964;105.830;2022-11-15T06:28:33;72.30;;;46.55;;
44434;SDS011;30138;20.964;105.830;2022-11-15T06:33:59;75.72;;;50.42;;
44434;SDS011;30138;20.964;105.830;2022-11-15T06:39:30;73.72;;;48.33;;
44434;SDS011;30138;20.964;105.830;2022-11-15T06:44:55;74.45;;;47.80;;
44434;SDS011;30138;20.964;105.830;2022-11-15T06:50:21;72.95;;;46.30;;
44434;SDS011;30138;20.964;105.830;2022-11-15T06:55:49;71.25;;;45.55;;
44434;SDS011;30138;20.964;105.830;2022-11-15T07:01:15;68.32;;;46.45;;
44434;SDS011;30138;20.964;105.830;2022-11-15T07:06:40;65.40;;;45.03;;
44434;SDS011;30138;20.964;105.830;2022-11-15T07:12:07;65.60;;;41.67;;
44434;SDS011;30138;20.964;105.830;2022-11-15T07:17:36;73.30;;;44.40;;
44434;SDS011;30138;20.964;105.830;2022-11-15T07:23:02;61.80;;;42.28;;
44434;SDS011;30138;20.964;105.830;2022-11-15T07:28:31;63.95;;;42.22;;
44434;SDS011;30138;20.964;105.830;2022-11-15T07:33:56;58.97;;;40.35;;
44434;SDS011;30138;20.964;105.830;2022-11-15T07:39:22;63.97;;;39.70;;
44434;SDS011;30138;20.964;105.830;2022-11-15T07:44:51;59.05;;;38.70;;
44434;SDS011;30138;20.964;105.830;2022-11-15T07:50:17;63.67;;;39.67;;
44434;SDS011;30138;20.964;105.830;2022-11-15T07:55:43;56.17;;;37.67;;
44434;SDS011;30138;20.964;105.830;2022-11-15T08:01:14;56.70;;;36.60;;
44434;SDS011;30138;20.964;105.830;2022-11-15T08:06:43;48.08;;;33.60;;
44434;SDS011;30138;20.964;105.830;2022-11-15T08:12:09;60.60;;;34.90;;
44434;SDS011;30138;20.964;105.830;2022-11-15T08:17:38;52.70;;;31.88;;
44434;SDS011;30138;20.964;105.830;2022-11-15T08:23:04;54.30;;;32.20;;
44434;SDS011;30138;20.964;105.830;2022-11-15T08:28:30;48.90;;;30.10;;
44434;SDS011;30138;20.964;105.830;2022-11-15T08:33:58;48.95;;;30.05;;
44434;SDS011;30138;20.964;105.830;2022-11-15T08:39:24;47.83;;;31.05;;
44434;SDS011;30138;20.964;105.830;2022-11-15T08:44:50;45.10;;;30.05;;
44434;SDS011;30138;20.964;105.830;2022-11-15T08:50:19;47.40;;;28.08;;
44434;SDS011;30138;20.964;105.830;2022-11-15T08:55:45;41.22;;;27.05;;
44434;SDS011;30138;20.964;105.830;2022-11-15T09:01:15;48.67;;;27.50;;
44434;SDS011;30138;20.964;105.830;2022-11-15T09:06:45;44.60;;;26.37;;
44434;SDS011;30138;20.964;105.830;2022-11-15T09:12:11;43.35;;;24.83;;
44434;SDS011;30138;20.964;105.830;2022-11-15T09:17:37;39.70;;;24.75;;
44434;SDS011;30138;20.964;105.830;2022-11-15T09:23:04;42.15;;;23.50;;
44434;SDS011;30138;20.964;105.830;2022-11-15T09:28:31;39.65;;;24.73;;
44434;SDS011;30138;20.964;105.830;2022-11-15T09:33:58;46.38;;;26.75;;
44434;SDS011;30138;20.964;105.830;2022-11-15T09:39:25;55.90;;;29.73;;
44434;SDS011;30138;20.964;105.830;2022-11-15T09:44:58;58.97;;;30.33;;
44434;SDS011;30138;20.964;105.830;2022-11-15T09:50:38;65.88;;;30.95;;
44434;SDS011;30138;20.964;105.830;2022-11-15T09:55:51;51.42;;;30.10;;
44434;SDS011;30138;20.964;105.830;2022-11-15T10:01:04;58.15;;;31.60;;
44434;SDS011;30138;20.964;105.830;2022-11-15T10:06:21;57.20;;;32.88;;
44434;SDS011;30138;20.964;105.830;2022-11-15T10:11:34;64.35;;;34.13;;
44434;SDS011;30138;20.964;105.830;2022-11-15T10:22:37;67.70;;;35.33;;
44434;SDS011;30138;20.964;105.830;2022-11-15T10:28:00;53.10;;;32.15;;
44434;SDS011;30138;20.964;105.830;2022-11-15T10:33:29;61.78;;;32.05;;
44434;SDS011;30138;20.964;105.830;2022-11-15T10:38:51;57.38;;;30.67;;
44434;SDS011;30138;20.964;105.830;2022-11-15T10:49:30;58.45;;;34.85;;
44434;SDS011;30138;20.964;105.830;2022-11-15T10:54:39;57.20;;;34.45;;
44434;SDS011;30138;20.964;105.830;2022-11-15T10:59:52;63.83;;;34.63;;
44434;SDS011;30138;20.964;105.830;2022-11-15T11:05:01;60.28;;;33.92;;
44434;SDS011;30138;20.964;105.830;2022-11-15T11:10:18;57.60;;;34.58;;
44434;SDS011;30138;20.964;105.830;2022-11-15T11:15:28;58.30;;;33.25;;
44434;SDS011;30138;20.964;105.830;2022-11-15T11:20:41;58.23;;;35.73;;
44434;SDS011;30138;20.964;105.830;2022-11-15T11:25:56;55.55;;;34.95;;
44434;SDS011;30138;20.964;105.830;2022-11-15T11:31:31;62.70;;;33.20;;
44434;SDS011;30138;20.964;105.830;2022-11-15T11:36:48;47.72;;;28.48;;
44434;SDS011;30138;20.964;105.830;2022-11-15T11:42:03;44.10;;;25.80;;
44434;SDS011;30138;20.964;105.830;2022-11-15T11:47:23;41.88;;;25.27;;
44434;SDS011;30138;20.964;105.830;2022-11-15T11:52:41;39.35;;;24.17;;
44434;SDS011;30138;20.964;105.830;2022-11-15T11:58:03;38.25;;;24.50;;
44434;SDS011;30138;20.964;105.830;2022-11-15T12:03:22;43.20;;;24.35;;
44434;SDS011;30138;20.964;105.830;2022-11-15T12:08:40;39.63;;;25.33;;
44434;SDS011;30138;20.964;105.830;2022-11-15T12:13:56;40.25;;;25.48;;
44434;SDS011;30138;20.964;105.830;2022-11-15T12:19:10;40.10;;;26.05;;
44434;SDS011;30138;20.964;105.830;2022-11-15T12:24:19;40.33;;;26.52;;
44434;SDS011;30138;20.964;105.830;2022-11-15T12:29:31;41.08;;;26.85;;
44434;SDS011;30138;20.964;105.830;2022-11-15T12:34:46;42.97;;;26.40;;
44434;SDS011;30138;20.964;105.830;2022-11-15T12:40:16;41.70;;;27.48;;
44434;SDS011;30138;20.964;105.830;2022-11-15T12:45:39;49.40;;;28.70;;
44434;SDS011;30138;20.964;105.830;2022-11-15T12:56:20;47.67;;;28.38;;
44434;SDS011;30138;20.964;105.830;2022-11-15T13:07:06;45.78;;;27.38;;
44434;SDS011;30138;20.964;105.830;2022-11-15T13:12:56;45.33;;;25.85;;
44434;SDS011;30138;20.964;105.830;2022-11-15T13:18:26;42.25;;;27.08;;
44434;SDS011;30138;20.964;105.830;2022-11-15T13:23:47;45.90;;;27.33;;
44434;SDS011;30138;20.964;105.830;2022-11-15T13:29:00;42.47;;;26.10;;
44434;SDS011;30138;20.964;105.830;2022-11-15T13:34:15;42.85;;;25.02;;
44434;SDS011;30138;20.964;105.830;2022-11-15T13:39:36;44.17;;;25.08;;
44434;SDS011;30138;20.964;105.830;2022-11-15T13:44:54;37.78;;;24.23;;
44434;SDS011;30138;20.964;105.830;2022-11-15T13:50:03;37.00;;;22.75;;
44434;SDS011;30138;20.964;105.830;2022-11-15T13:55:17;40.33;;;23.08;;
44434;SDS011;30138;20.964;105.830;2022-11-15T14:00:33;37.60;;;22.02;;
44434;SDS011;30138;20.964;105.830;2022-11-15T14:06:01;38.67;;;23.10;;
44434;SDS011;30138;20.964;105.830;2022-11-15T14:11:16;37.50;;;21.60;;
44434;SDS011;30138;20.964;105.830;2022-11-15T14:16:32;40.92;;;21.90;;
44434;SDS011;30138;20.964;105.830;2022-11-15T14:27:26;35.57;;;21.23;;
44434;SDS011;30138;20.964;105.830;2022-11-15T14:32:38;42.30;;;22.13;;
44434;SDS011;30138;20.964;105.830;2022-11-15T14:37:50;37.70;;;22.40;;
44434;SDS011;30138;20.964;105.830;2022-11-15T14:43:07;36.63;;;22.52;;
44434;SDS011;30138;20.964;105.830;2022-11-15T14:48:16;43.83;;;22.50;;
44434;SDS011;30138;20.964;105.830;2022-11-15T14:53:26;43.13;;;23.38;;
44434;SDS011;30138;20.964;105.830;2022-11-15T14:58:36;44.00;;;22.50;;
44434;SDS011;30138;20.964;105.830;2022-11-15T15:03:44;33.53;;;21.77;;
44434;SDS011;30138;20.964;105.830;2022-11-15T15:08:54;41.47;;;22.05;;
44434;SDS011;30138;20.964;105.830;2022-11-15T15:14:04;38.88;;;23.42;;
44434;SDS011;30138;20.964;105.830;2022-11-15T15:19:14;45.50;;;25.38;;
44434;SDS011;30138;20.964;105.830;2022-11-15T15:24:23;40.55;;;24.63;;
44434;SDS011;30138;20.964;105.830;2022-11-15T15:29:35;45.45;;;28.02;;
44434;SDS011;30138;20.964;105.830;2022-11-15T15:34:43;46.55;;;29.45;;
44434;SDS011;30138;20.964;105.830;2022-11-15T15:39:55;49.72;;;32.30;;
44434;SDS011;30138;20.964;105.830;2022-11-15T15:45:11;51.83;;;32.67;;
44434;SDS011;30138;20.964;105.830;2022-11-15T15:50:21;56.03;;;33.30;;
44434;SDS011;30138;20.964;105.830;2022-11-15T15:55:31;55.03;;;34.23;;
44434;SDS011;30138;20.964;105.830;2022-11-15T16:00:41;53.38;;;33.63;;
44434;SDS011;30138;20.964;105.830;2022-11-15T16:05:53;60.78;;;34.30;;
44434;SDS011;30138;20.964;105.830;2022-11-15T16:11:25;64.22;;;35.22;;
44434;SDS011;30138;20.964;105.830;2022-11-15T16:22:45;60.08;;;34.75;;
44434;SDS011;30138;20.964;105.830;2022-11-15T16:27:53;69.65;;;38.40;;
44434;SDS011;30138;20.964;105.830;2022-11-15T16:33:04;68.60;;;37.50;;
44434;SDS011;30138;20.964;105.830;2022-11-15T16:38:13;73.10;;;44.40;;
44434;SDS011;30138;20.964;105.830;2022-11-15T16:43:22;74.43;;;44.28;;
44434;SDS011;30138;20.964;105.830;2022-11-15T16:48:32;73.88;;;42.95;;
44434;SDS011;30138;20.964;105.830;2022-11-15T16:53:41;73.20;;;43.40;;
44434;SDS011;30138;20.964;105.830;2022-11-15T16:58:49;66.97;;;40.20;;
44434;SDS011;30138;20.964;105.830;2022-11-15T17:04:01;63.30;;;38.83;;
44434;SDS011;30138;20.964;105.830;2022-11-15T17:09:13;61.67;;;37.00;;
44434;SDS011;30138;20.964;105.830;2022-11-15T17:14:25;57.60;;;33.97;;
44434;SDS011;30138;20.964;105.830;2022-11-15T17:19:35;53.15;;;32.13;;
44434;SDS011;30138;20.964;105.830;2022-11-15T17:24:43;54.30;;;33.47;;
44434;SDS011;30138;20.964;105.830;2022-11-15T17:29:51;63.60;;;34.75;;
44434;SDS011;30138;20.964;105.830;2022-11-15T17:35:02;61.70;;;36.10;;
44434;SDS011;30138;20.964;105.830;2022-11-15T17:45:18;72.78;;;43.55;;
44434;SDS011;30138;20.964;105.830;2022-11-15T17:50:27;67.30;;;41.60;;
44434;SDS011;30138;20.964;105.830;2022-11-15T17:55:35;66.87;;;37.07;;
44434;SDS011;30138;20.964;105.830;2022-11-15T18:00:44;55.03;;;34.88;;
44434;SDS011;30138;20.964;105.830;2022-11-15T18:05:54;49.17;;;29.88;;
44434;SDS011;30138;20.964;105.830;2022-11-15T18:11:04;45.03;;;28.38;;
44434;SDS011;30138;20.964;105.830;2022-11-15T18:16:14;50.97;;;28.73;;
44434;SDS011;30138;20.964;105.830;2022-11-15T18:21:25;49.42;;;30.17;;
44434;SDS011;30138;20.964;105.830;2022-11-15T18:26:35;49.17;;;30.58;;
44434;SDS011;30138;20.964;105.830;2022-11-15T18:31:43;49.75;;;30.02;;
44434;SDS011;30138;20.964;105.830;2022-11-15T18:36:53;48.67;;;30.13;;
44434;SDS011;30138;20.964;105.830;2022-11-15T18:42:00;47.25;;;28.90;;
44434;SDS011;30138;20.964;105.830;2022-11-15T18:47:08;46.72;;;26.73;;
44434;SDS011;30138;20.964;105.830;2022-11-15T18:52:19;46.30;;;26.45;;
44434;SDS011;30138;20.964;105.830;2022-11-15T19:02:35;39.85;;;25.23;;
44434;SDS011;30138;20.964;105.830;2022-11-15T19:07:44;40.28;;;25.48;;
44434;SDS011;30138;20.964;105.830;2022-11-15T19:12:54;43.40;;;25.70;;
44434;SDS011;30138;20.964;105.830;2022-11-15T19:18:01;49.42;;;27.77;;
44434;SDS011;30138;20.964;105.830;2022-11-15T19:23:11;48.03;;;27.25;;
44434;SDS011;30138;20.964;105.830;2022-11-15T19:28:19;46.50;;;26.63;;
44434;SDS011;30138;20.964;105.830;2022-11-15T19:33:27;52.13;;;28.45;;
44434;SDS011;30138;20.964;105.830;2022-11-15T19:38:37;51.25;;;28.35;;
44434;SDS011;30138;20.964;105.830;2022-11-15T19:43:45;56.67;;;30.98;;
44434;SDS011;30138;20.964;105.830;2022-11-15T19:48:53;60.85;;;30.60;;
44434;SDS011;30138;20.964;105.830;2022-11-15T19:54:03;58.08;;;30.90;;
44434;SDS011;30138;20.964;105.830;2022-11-15T19:59:11;57.30;;;30.88;;
44434;SDS011;30138;20.964;105.830;2022-11-15T20:04:20;53.85;;;30.23;;
44434;SDS011;30138;20.964;105.830;2022-11-15T20:09:30;56.85;;;30.55;;
44434;SDS011;30138;20.964;105.830;2022-11-15T20:14:38;57.30;;;31.23;;
44434;SDS011;30138;20.964;105.830;2022-11-15T20:19:46;54.30;;;30.27;;
44434;SDS011;30138;20.964;105.830;2022-11-15T20:24:55;58.97;;;32.47;;
44434;SDS011;30138;20.964;105.830;2022-11-15T20:30:04;71.13;;;39.87;;
44434;SDS011;30138;20.964;105.830;2022-11-15T20:35:14;60.92;;;36.22;;
44434;SDS011;30138;20.964;105.830;2022-11-15T20:40:26;68.07;;;34.92;;
44434;SDS011;30138;20.964;105.830;2022-11-15T20:45:35;62.80;;;35.22;;
44434;SDS011;30138;20.964;105.830;2022-11-15T20:50:43;62.80;;;34.15;;
44434;SDS011;30138;20.964;105.830;2022-11-15T20:55:55;63.55;;;33.95;;
44434;SDS011;30138;20.964;105.830;2022-11-15T21:01:09;61.10;;;34.10;;
44434;SDS011;30138;20.964;105.830;2022-11-15T21:06:21;70.20;;;36.42;;
44434;SDS011;30138;20.964;105.830;2022-11-15T21:11:32;68.03;;;36.20;;
44434;SDS011;30138;20.964;105.830;2022-11-15T21:16:56;71.72;;;35.88;;
44434;SDS011;30138;20.964;105.830;2022-11-15T21:22:04;69.88;;;36.78;;
44434;SDS011;30138;20.964;105.830;2022-11-15T21:27:15;69.18;;;37.60;;
44434;SDS011;30138;20.964;105.830;2022-11-15T21:32:22;64.50;;;36.40;;
44434;SDS011;30138;20.964;105.830;2022-11-15T21:37:31;79.03;;;39.65;;
44434;SDS011;30138;20.964;105.830;2022-11-15T21:42:40;70.68;;;38.45;;
44434;SDS011;30138;20.964;105.830;2022-11-15T21:47:48;73.13;;;39.20;;
44434;SDS011;30138;20.964;105.830;2022-11-15T21:52:55;67.47;;;37.88;;
44434;SDS011;30138;20.964;105.830;2022-11-15T21:58:05;71.53;;;39.67;;
44434;SDS011;30138;20.964;105.830;2022-11-15T22:03:12;67.35;;;38.72;;
44434;SDS011;30138;20.964;105.830;2022-11-15T22:08:20;73.80;;;39.38;;
44434;SDS011;30138;20.964;105.830;2022-11-15T22:13:30;68.63;;;40.58;;
44434;SDS011;30138;20.964;105.830;2022-11-15T22:18:37;74.00;;;41.13;;
44434;SDS011;30138;20.964;105.830;2022-11-15T22:23:45;77.18;;;42.33;;
44434;SDS011;30138;20.964;105.830;2022-11-15T22:28:55;82.15;;;45.50;;
44434;SDS011;30138;20.964;105.830;2022-11-15T22:34:03;81.55;;;43.00;;
44434;SDS011;30138;20.964;105.830;2022-11-15T22:39:11;78.03;;;43.03;;
44434;SDS011;30138;20.964;105.830;2022-11-15T22:44:21;77.25;;;42.83;;
44434;SDS011;30138;20.964;105.830;2022-11-15T22:49:28;74.30;;;44.05;;
44434;SDS011;30138;20.964;105.830;2022-11-15T22:54:36;77.63;;;45.92;;
44434;SDS011;30138;20.964;105.830;2022-11-15T22:59:47;83.88;;;47.33;;
44434;SDS011;30138;20.964;105.830;2022-11-15T23:04:55;82.05;;;48.85;;
44434;SDS011;30138;20.964;105.830;2022-11-15T23:10:04;87.50;;;48.83;;
44434;SDS011;30138;20.964;105.830;2022-11-15T23:15:30;91.07;;;49.90;;
44434;SDS011;30138;20.964;105.830;2022-11-15T23:20:50;83.65;;;48.75;;
44434;SDS011;30138;20.964;105.830;2022-11-15T23:25:59;85.30;;;50.35;;
44434;SDS011;30138;20.964;105.830;2022-11-15T23:31:09;84.93;;;50.25;;
44434;SDS011;30138;20.964;105.830;2022-11-15T23:36:33;95.75;;;48.08;;
44434;SDS011;30138;20.964;105.830;2022-11-15T23:41:41;90.90;;;50.15;;
44434;SDS011;30138;20.964;105.830;2022-11-15T23:46:51;82.57;;;49.15;;
44434;SDS011;30138;20.964;105.830;2022-11-15T23:51:59;93.88;;;49.95;;
44434;SDS011;30138;20.964;105.830;2022-11-15T23:57:06;85.55;;;49.90;;
